createdAt,value
2023-04-10T00:00:35.420Z,113.56
2023-04-10T00:01:35.358Z,113.69
2023-04-10T00:02:35.522Z,114.95
2023-04-10T00:03:35.556Z,112.53
2023-04-10T00:04:35.729Z,109.97
2023-04-10T00:05:35.585Z,113.54
2023-04-10T00:06:35.604Z,113.70
2023-04-10T00:07:35.644Z,113.66
2023-04-10T00:08:35.694Z,111.69
2023-04-10T00:09:35.765Z,111.40
2023-04-10T00:10:35.792Z,110.67
2023-04-10T00:11:35.854Z,111.30
2023-04-10T00:12:35.901Z,112.40
2023-04-10T00:13:35.914Z,112.80
2023-04-10T00:14:35.976Z,112.22
2023-04-10T00:15:36.047Z,112.27
2023-04-10T00:16:36.107Z,111.48
2023-04-10T00:17:36.198Z,112.34
2023-04-10T00:18:36.175Z,112.37
2023-04-10T00:19:36.225Z,111.84
2023-04-10T00:20:36.274Z,110.99
2023-04-10T00:21:36.294Z,111.84
2023-04-10T00:22:36.335Z,111.04
2023-04-10T00:23:36.382Z,111.61
2023-04-10T00:24:36.411Z,111.09
2023-04-10T00:25:36.462Z,111.29
2023-04-10T00:26:36.520Z,113.00
2023-04-10T00:27:36.570Z,110.91
2023-04-10T00:28:36.637Z,111.03
2023-04-10T00:29:36.642Z,109.31
2023-04-10T00:30:36.695Z,109.75
2023-04-10T00:31:36.753Z,109.62
2023-04-10T00:32:36.791Z,110.43
2023-04-10T00:33:36.807Z,110.38
2023-04-10T00:34:36.896Z,108.86
2023-04-10T00:35:36.956Z,110.10
2023-04-10T00:36:36.984Z,110.40
2023-04-10T00:37:37.021Z,109.53
2023-04-10T00:38:37.056Z,110.05
2023-04-10T00:39:37.096Z,110.56
2023-04-10T00:40:37.113Z,110.68
2023-04-10T00:41:37.188Z,111.70
2023-04-10T00:42:37.182Z,110.77
2023-04-10T00:43:37.296Z,112.49
2023-04-10T00:44:37.303Z,110.01
2023-04-10T00:45:37.401Z,112.21
2023-04-10T00:46:37.401Z,110.29
2023-04-10T00:47:37.492Z,112.21
2023-04-10T00:48:37.518Z,111.65
2023-04-10T00:49:37.548Z,111.71
2023-04-10T00:50:37.590Z,109.77
2023-04-10T00:51:37.670Z,109.20
2023-04-10T00:52:37.686Z,110.30
2023-04-10T00:53:37.781Z,111.06
2023-04-10T00:54:37.806Z,110.21
2023-04-10T00:55:37.835Z,109.14
2023-04-10T00:56:37.873Z,111.50
2023-04-10T00:57:37.906Z,110.44
2023-04-10T00:58:37.984Z,109.95
2023-04-10T00:59:38.034Z,110.25
2023-04-10T01:00:38.088Z,110.43
2023-04-10T01:01:38.275Z,109.38
2023-04-10T01:02:38.329Z,110.43
2023-04-10T01:03:38.486Z,109.00
2023-04-10T01:04:38.472Z,110.33
2023-04-10T01:05:38.350Z,109.09
2023-04-10T01:06:38.383Z,109.47
2023-04-10T01:07:38.433Z,108.55
2023-04-10T01:08:38.436Z,109.40
2023-04-10T01:09:38.503Z,108.25
2023-04-10T01:10:38.582Z,110.45
2023-04-10T01:11:38.572Z,108.00
2023-04-10T01:12:38.677Z,108.57
2023-04-10T01:13:38.707Z,110.53
2023-04-10T01:14:38.813Z,110.08
2023-04-10T01:15:38.787Z,108.68
2023-04-10T01:16:38.881Z,109.25
2023-04-10T01:17:38.936Z,110.58
2023-04-10T01:18:39.037Z,108.85
2023-04-10T01:19:39.020Z,108.48
2023-04-10T01:20:39.114Z,109.30
2023-04-10T01:21:39.095Z,106.68
2023-04-10T01:22:39.197Z,107.12
2023-04-10T01:23:39.236Z,106.75
2023-04-10T01:24:39.266Z,108.05
2023-04-10T01:25:39.329Z,107.36
2023-04-10T01:26:39.496Z,107.60
2023-04-10T01:27:39.426Z,108.76
2023-04-10T01:28:39.500Z,108.24
2023-04-10T01:29:39.629Z,106.45
2023-04-10T01:30:39.648Z,109.18
2023-04-10T01:31:39.732Z,108.52
2023-04-10T01:32:39.781Z,106.62
2023-04-10T01:33:39.743Z,106.95
2023-04-10T01:34:39.870Z,107.51
2023-04-10T01:35:39.894Z,108.27
2023-04-10T01:36:39.953Z,106.18
2023-04-10T01:37:39.985Z,106.78
2023-04-10T01:38:40.082Z,106.55
2023-04-10T01:39:40.126Z,105.84
2023-04-10T01:40:40.171Z,106.43
2023-04-10T01:41:40.237Z,106.48
2023-04-10T01:42:40.333Z,106.16
2023-04-10T01:43:40.372Z,104.20
2023-04-10T01:44:40.444Z,107.11
2023-04-10T01:45:40.494Z,107.68
2023-04-10T01:46:40.623Z,106.88
2023-04-10T01:47:40.680Z,107.52
2023-04-10T01:48:40.696Z,107.47
2023-04-10T01:49:40.714Z,105.14
2023-04-10T01:50:40.843Z,107.06
2023-04-10T01:51:40.822Z,105.69
2023-04-10T01:52:40.903Z,105.89
2023-04-10T01:53:40.957Z,103.72
2023-04-10T01:54:41.020Z,103.08
2023-04-10T01:55:41.114Z,104.51
2023-04-10T01:56:41.178Z,103.98
2023-04-10T01:57:41.202Z,103.91
2023-04-10T01:58:41.314Z,103.45
2023-04-10T01:59:41.389Z,106.50
2023-04-10T02:00:41.361Z,105.97
2023-04-10T02:01:41.559Z,104.58
2023-04-10T02:02:41.581Z,102.94
2023-04-10T02:03:41.731Z,105.67
2023-04-10T02:04:41.666Z,102.51
2023-04-10T02:05:41.697Z,103.55
2023-04-10T02:06:41.720Z,105.79
2023-04-10T02:07:41.796Z,103.22
2023-04-10T02:08:41.785Z,105.62
2023-04-10T02:09:41.908Z,105.84
2023-04-10T02:10:41.954Z,105.77
2023-04-10T02:11:41.989Z,103.56
2023-04-10T02:12:42.079Z,106.50
2023-04-10T02:13:42.138Z,106.71
2023-04-10T02:14:42.192Z,103.83
2023-04-10T02:15:42.211Z,104.01
2023-04-10T02:16:42.220Z,104.04
2023-04-10T02:17:42.334Z,105.23
2023-04-10T02:18:42.332Z,103.28
2023-04-10T02:19:42.370Z,103.32
2023-04-10T02:20:42.388Z,103.03
2023-04-10T02:21:42.425Z,104.56
2023-04-10T02:22:42.438Z,101.76
2023-04-10T02:23:42.470Z,103.93
2023-04-10T02:24:42.509Z,104.60
2023-04-10T02:25:42.568Z,102.62
2023-04-10T02:26:42.615Z,103.77
2023-04-10T02:27:42.602Z,102.07
2023-04-10T02:28:42.636Z,102.92
2023-04-10T02:29:42.649Z,100.74
2023-04-10T02:30:42.657Z,100.81
2023-04-10T02:31:42.849Z,103.51
2023-04-10T02:32:42.756Z,103.97
2023-04-10T02:33:42.725Z,100.78
2023-04-10T02:34:42.730Z,102.69
2023-04-10T02:35:42.762Z,103.98
2023-04-10T02:36:42.801Z,103.12
2023-04-10T02:37:42.766Z,102.39
2023-04-10T02:38:42.906Z,100.94
2023-04-10T02:39:42.815Z,102.85
2023-04-10T02:40:42.850Z,101.79
2023-04-10T02:41:42.884Z,101.43
2023-04-10T02:42:42.877Z,103.69
2023-04-10T02:43:43.003Z,102.52
2023-04-10T02:44:42.959Z,103.15
2023-04-10T02:45:42.961Z,104.41
2023-04-10T02:46:43.062Z,104.06
2023-04-10T02:47:43.057Z,105.15
2023-04-10T02:48:43.008Z,104.16
2023-04-10T02:49:43.039Z,102.55
2023-04-10T02:50:43.034Z,103.34
2023-04-10T02:51:43.007Z,102.81
2023-04-10T02:52:43.003Z,101.69
2023-04-10T02:53:43.099Z,103.20
2023-04-10T02:54:43.128Z,103.17
2023-04-10T02:55:43.082Z,100.29
2023-04-10T02:56:43.082Z,100.96
2023-04-10T02:57:43.081Z,102.28
2023-04-10T02:58:43.199Z,101.60
2023-04-10T02:59:43.133Z,103.11
2023-04-10T03:00:43.098Z,103.14
2023-04-10T03:01:43.234Z,101.07
2023-04-10T03:02:43.304Z,102.26
2023-04-10T03:03:43.210Z,101.27
2023-04-10T03:04:43.285Z,101.26
2023-04-10T03:05:43.361Z,103.06
2023-04-10T03:06:43.391Z,102.40
2023-04-10T03:07:43.416Z,104.01
2023-04-10T03:08:43.477Z,103.23
2023-04-10T03:09:43.422Z,100.05
2023-04-10T03:10:43.380Z,99.65
2023-04-10T03:11:43.439Z,102.13
2023-04-10T03:12:43.503Z,102.42
2023-04-10T03:13:43.606Z,101.62
2023-04-10T03:14:43.724Z,101.37
2023-04-10T03:15:43.839Z,101.37
2023-04-10T03:16:43.929Z,103.85
2023-04-10T03:17:43.952Z,102.36
2023-04-10T03:18:43.905Z,101.84
2023-04-10T03:19:43.911Z,99.40
2023-04-10T03:20:58.476Z,99.27
2023-04-10T03:21:44.070Z,99.88
2023-04-10T03:22:44.102Z,100.94
2023-04-10T03:23:44.098Z,102.15
2023-04-10T03:24:44.092Z,102.96
2023-04-10T03:25:44.108Z,105.85
2023-04-10T03:26:44.167Z,103.99
2023-04-10T03:27:44.318Z,103.90
2023-04-10T03:28:44.327Z,104.90
2023-04-10T03:29:44.331Z,103.86
2023-04-10T03:30:44.338Z,103.12
2023-04-10T03:31:44.378Z,101.70
2023-04-10T03:32:44.349Z,102.98
2023-04-10T03:33:44.548Z,103.18
2023-04-10T03:34:44.464Z,103.39
2023-04-10T03:35:44.562Z,101.54
2023-04-10T03:36:44.493Z,102.94
2023-04-10T03:37:44.480Z,100.62
2023-04-10T03:38:44.558Z,101.35
2023-04-10T03:39:44.616Z,100.55
2023-04-10T03:40:44.716Z,101.79
2023-04-10T03:41:44.770Z,101.94
2023-04-10T03:42:44.756Z,100.89
2023-04-10T03:43:44.765Z,100.71
2023-04-10T03:44:44.792Z,101.69
2023-04-10T03:45:44.805Z,101.37
2023-04-10T03:46:44.881Z,102.50
2023-04-10T03:47:44.912Z,100.41
2023-04-10T03:48:44.878Z,100.80
2023-04-10T03:49:44.882Z,101.39
2023-04-10T03:50:44.945Z,99.32
2023-04-10T03:51:44.944Z,98.95
2023-04-10T03:52:44.925Z,97.61
2023-04-10T03:53:44.962Z,100.07
2023-04-10T03:54:44.968Z,100.25
2023-04-10T03:55:45.027Z,101.14
2023-04-10T03:56:44.978Z,101.22
2023-04-10T03:57:45.012Z,100.91
2023-04-10T03:58:45.037Z,100.24
2023-04-10T03:59:45.028Z,101.55
2023-04-10T04:00:45.067Z,100.29
2023-04-10T04:01:45.126Z,99.09
2023-04-10T04:02:45.281Z,90.12
2023-04-10T04:03:45.248Z,80.53
2023-04-10T04:04:45.317Z,68.16
2023-04-10T04:05:45.190Z,57.77
2023-04-10T04:06:45.207Z,51.09
2023-04-10T04:07:45.205Z,40.61
2023-04-10T04:08:45.204Z,27.75
2023-04-10T04:09:45.196Z,25.00
2023-04-10T04:10:45.230Z,25.00
2023-04-10T04:11:45.252Z,25.00
2023-04-10T04:12:45.383Z,25.58
2023-04-10T04:13:45.453Z,24.77
2023-04-10T04:14:45.496Z,25.00
2023-04-10T04:15:45.428Z,24.40
2023-04-10T04:16:45.512Z,25.33
2023-04-10T04:17:45.508Z,25.52
2023-04-10T04:18:45.470Z,25.20
2023-04-10T04:19:45.483Z,28.46
2023-04-10T04:20:45.499Z,25.00
2023-04-10T04:21:45.521Z,25.79
2023-04-10T04:22:45.504Z,26.05
2023-04-10T04:23:45.621Z,27.60
2023-04-10T04:24:45.644Z,25.76
2023-04-10T04:25:45.681Z,25.92
2023-04-10T04:26:45.708Z,27.20
2023-04-10T04:27:45.708Z,28.09
2023-04-10T04:28:45.710Z,26.07
2023-04-10T04:29:45.742Z,26.47
2023-04-10T04:30:45.830Z,28.17
2023-04-10T04:31:45.867Z,32.97
2023-04-10T04:32:45.916Z,36.35
2023-04-10T04:33:45.950Z,35.86
2023-04-10T04:34:46.005Z,39.77
2023-04-10T04:35:46.075Z,51.46
2023-04-10T04:36:46.134Z,62.26
2023-04-10T04:37:46.186Z,70.22
2023-04-10T04:38:46.242Z,71.37
2023-04-10T04:39:46.262Z,74.63
2023-04-10T04:40:46.356Z,75.24
2023-04-10T04:41:46.375Z,75.68
2023-04-10T04:42:46.431Z,77.02
2023-04-10T04:43:46.475Z,81.44
2023-04-10T04:44:46.534Z,80.87
2023-04-10T04:45:46.621Z,83.22
2023-04-10T04:46:46.597Z,84.16
2023-04-10T04:47:46.678Z,83.44
2023-04-10T04:48:46.703Z,85.99
2023-04-10T04:49:46.706Z,86.65
2023-04-10T04:50:46.777Z,90.41
2023-04-10T04:51:46.788Z,91.55
2023-04-10T04:52:46.847Z,90.90
2023-04-10T04:53:46.942Z,93.39
2023-04-10T04:54:46.907Z,93.53
2023-04-10T04:55:46.965Z,89.63
2023-04-10T04:56:47.030Z,91.27
2023-04-10T04:57:47.023Z,94.27
2023-04-10T04:58:47.085Z,95.27
2023-04-10T04:59:47.101Z,95.46
2023-04-10T05:00:47.152Z,97.32
2023-04-10T05:01:47.211Z,95.31
2023-04-10T05:02:47.355Z,97.70
2023-04-10T05:03:47.360Z,100.43
2023-04-10T05:04:47.267Z,101.06
2023-04-10T05:05:47.343Z,103.21
2023-04-10T05:06:47.347Z,102.79
2023-04-10T05:07:47.399Z,103.77
2023-04-10T05:08:47.415Z,103.21
2023-04-10T05:09:47.481Z,99.28
2023-04-10T05:10:47.531Z,104.16
2023-04-10T05:11:47.528Z,103.89
2023-04-10T05:12:47.596Z,102.07
2023-04-10T05:13:47.610Z,104.72
2023-04-10T05:14:47.661Z,104.96
2023-04-10T05:15:47.734Z,103.96
2023-04-10T05:16:47.677Z,106.79
2023-04-10T05:17:47.778Z,107.27
2023-04-10T05:18:47.988Z,103.58
2023-04-10T05:19:47.784Z,106.59
2023-04-10T05:20:47.849Z,106.21
2023-04-10T05:21:47.848Z,107.27
2023-04-10T05:22:47.859Z,110.76
2023-04-10T05:23:47.914Z,110.70
2023-04-10T05:24:47.917Z,110.33
2023-04-10T05:25:47.984Z,109.53
2023-04-10T05:26:47.986Z,113.36
2023-04-10T05:27:48.016Z,111.69
2023-04-10T05:28:48.064Z,111.42
2023-04-10T05:29:48.103Z,113.73
2023-04-10T05:30:48.167Z,113.95
2023-04-10T05:31:48.169Z,112.80
2023-04-10T05:32:48.184Z,114.04
2023-04-10T05:33:48.249Z,113.74
2023-04-10T05:34:48.301Z,114.75
2023-04-10T05:35:48.374Z,115.58
2023-04-10T05:36:48.469Z,114.30
2023-04-10T05:37:48.317Z,116.90
2023-04-10T05:38:48.333Z,113.79
2023-04-10T05:39:48.356Z,115.52
2023-04-10T05:40:48.395Z,119.37
2023-04-10T05:41:48.457Z,117.56
2023-04-10T05:42:48.459Z,114.76
2023-04-10T05:43:48.524Z,116.54
2023-04-10T05:44:48.521Z,118.14
2023-04-10T05:45:48.545Z,117.71
2023-04-10T05:46:48.715Z,115.28
2023-04-10T05:47:48.595Z,116.72
2023-04-10T05:48:48.598Z,118.98
2023-04-10T05:49:48.665Z,118.37
2023-04-10T05:50:48.666Z,121.21
2023-04-10T05:51:48.666Z,119.17
2023-04-10T05:52:48.730Z,123.00
2023-04-10T05:53:48.733Z,121.58
2023-04-10T05:54:48.797Z,120.91
2023-04-10T05:55:48.807Z,120.54
2023-04-10T05:56:48.846Z,119.48
2023-04-10T05:57:48.836Z,120.61
2023-04-10T05:58:48.856Z,122.03
2023-04-10T05:59:48.936Z,122.74
2023-04-10T06:00:48.956Z,121.62
2023-04-10T06:01:48.964Z,123.94
2023-04-10T06:02:49.189Z,122.28
2023-04-10T06:03:49.099Z,121.72
2023-04-10T06:04:49.302Z,122.56
2023-04-10T06:05:49.084Z,122.67
2023-04-10T06:06:49.090Z,125.94
2023-04-10T06:07:49.441Z,124.75
2023-04-10T06:08:49.147Z,125.87
2023-04-10T06:09:49.157Z,123.93
2023-04-10T06:10:49.201Z,123.55
2023-04-10T06:11:49.239Z,124.84
2023-04-10T06:12:49.269Z,124.96
2023-04-10T06:13:49.276Z,123.76
2023-04-10T06:14:49.292Z,124.75
2023-04-10T06:15:49.337Z,125.95
2023-04-10T06:16:49.350Z,127.43
2023-04-10T06:17:49.405Z,127.43
2023-04-10T06:18:49.424Z,124.64
2023-04-10T06:19:49.412Z,125.38
2023-04-10T06:20:49.443Z,126.39
2023-04-10T06:21:49.481Z,123.26
2023-04-10T06:22:49.495Z,125.87
2023-04-10T06:23:49.616Z,127.86
2023-04-10T06:24:49.866Z,129.62
2023-04-10T06:25:50.016Z,125.87
2023-04-10T06:26:49.875Z,129.03
2023-04-10T06:27:49.785Z,133.79
2023-04-10T06:28:49.921Z,127.20
2023-04-10T06:29:49.794Z,131.04
2023-04-10T06:30:49.901Z,130.27
2023-04-10T06:31:49.976Z,131.07
2023-04-10T06:32:49.951Z,132.30
2023-04-10T06:33:49.930Z,134.68
2023-04-10T06:34:49.943Z,133.19
2023-04-10T06:35:50.036Z,132.47
2023-04-10T06:36:50.001Z,131.68
2023-04-10T06:37:50.008Z,131.61
2023-04-10T06:38:50.017Z,132.87
2023-04-10T06:39:50.070Z,133.27
2023-04-10T06:40:50.091Z,128.70
2023-04-10T06:41:50.095Z,130.52
2023-04-10T06:42:50.345Z,133.53
2023-04-10T06:43:50.148Z,133.08
2023-04-10T06:44:50.146Z,135.30
2023-04-10T06:45:50.166Z,137.45
2023-04-10T06:46:50.212Z,139.60
2023-04-10T06:47:50.177Z,137.97
2023-04-10T06:48:50.190Z,135.85
2023-04-10T06:49:50.238Z,137.30
2023-04-10T06:50:50.248Z,136.35
2023-04-10T06:51:50.260Z,138.32
2023-04-10T06:52:50.256Z,136.08
2023-04-10T06:53:50.285Z,136.66
2023-04-10T06:54:50.387Z,138.89
2023-04-10T06:55:50.448Z,138.75
2023-04-10T06:56:50.456Z,140.13
2023-04-10T06:57:50.455Z,136.87
2023-04-10T06:58:50.465Z,136.90
2023-04-10T06:59:50.473Z,136.72
2023-04-10T07:00:50.590Z,140.01
2023-04-10T07:01:50.600Z,138.78
2023-04-10T07:02:50.656Z,137.97
2023-04-10T07:03:50.644Z,140.17
2023-04-10T07:04:50.606Z,142.78
2023-04-10T07:05:50.661Z,141.08
2023-04-10T07:06:50.668Z,140.87
2023-04-10T07:07:50.673Z,138.15
2023-04-10T07:08:50.677Z,140.54
2023-04-10T07:09:50.694Z,140.98
2023-04-10T07:10:50.681Z,143.35
2023-04-10T07:11:50.707Z,142.25
2023-04-10T07:12:50.790Z,143.06
2023-04-10T07:13:50.713Z,142.34
2023-04-10T07:14:50.770Z,141.85
2023-04-10T07:15:50.865Z,141.58
2023-04-10T07:16:50.945Z,142.43
2023-04-10T07:17:50.910Z,143.51
2023-04-10T07:18:50.898Z,141.84
2023-04-10T07:19:50.908Z,143.60
2023-04-10T07:20:50.924Z,141.73
2023-04-10T07:21:51.002Z,142.72
2023-04-10T07:22:50.990Z,145.62
2023-04-10T07:23:50.932Z,142.72
2023-04-10T07:24:50.989Z,142.93
2023-04-10T07:25:51.000Z,144.60
2023-04-10T07:26:51.065Z,145.78
2023-04-10T07:27:51.179Z,145.06
2023-04-10T07:28:51.182Z,147.71
2023-04-10T07:29:51.193Z,146.85
2023-04-10T07:30:51.144Z,144.87
2023-04-10T07:31:51.263Z,145.28
2023-04-10T07:32:51.269Z,146.11
2023-04-10T07:33:51.267Z,147.47
2023-04-10T07:34:51.375Z,145.96
2023-04-10T07:35:51.381Z,145.34
2023-04-10T07:36:51.353Z,145.91
2023-04-10T07:37:51.326Z,143.80
2023-04-10T07:38:51.344Z,147.17
2023-04-10T07:39:51.299Z,144.79
2023-04-10T07:40:51.360Z,144.74
2023-04-10T07:41:51.378Z,145.55
2023-04-10T07:42:53.802Z,144.62
2023-04-10T07:43:51.524Z,145.44
2023-04-10T07:44:51.595Z,146.46
2023-04-10T07:45:51.611Z,147.66
2023-04-10T07:46:51.563Z,146.16
2023-04-10T07:47:51.691Z,147.68
2023-04-10T07:48:51.725Z,147.13
2023-04-10T07:49:51.522Z,149.23
2023-04-10T07:50:51.648Z,148.15
2023-04-10T07:51:51.692Z,149.94
2023-04-10T07:52:51.815Z,148.69
2023-04-10T07:53:51.870Z,145.17
2023-04-10T07:54:51.894Z,148.34
2023-04-10T07:55:51.833Z,147.09
2023-04-10T07:56:51.829Z,145.75
2023-04-10T07:57:51.833Z,147.31
2023-04-10T07:58:52.098Z,147.09
2023-04-10T07:59:51.951Z,145.75
2023-04-10T08:00:52.011Z,146.83
2023-04-10T08:01:52.079Z,147.10
2023-04-10T08:02:52.227Z,147.68
2023-04-10T08:03:52.174Z,149.08
2023-04-10T08:04:52.255Z,147.15
2023-04-10T08:05:52.170Z,150.89
2023-04-10T08:06:52.167Z,149.54
2023-04-10T08:07:52.214Z,151.10
2023-04-10T08:08:52.423Z,150.21
2023-04-10T08:09:52.324Z,149.01
2023-04-10T08:10:52.377Z,152.46
2023-04-10T08:11:52.446Z,150.98
2023-04-10T08:12:52.502Z,151.61
2023-04-10T08:13:52.557Z,150.94
2023-04-10T08:14:52.604Z,152.23
2023-04-10T08:15:52.684Z,154.75
2023-04-10T08:16:52.750Z,151.92
2023-04-10T08:17:52.861Z,152.94
2023-04-10T08:18:53.165Z,153.60
2023-04-10T08:19:52.890Z,152.26
2023-04-10T08:20:52.976Z,152.64
2023-04-10T08:21:53.014Z,152.54
2023-04-10T08:22:53.072Z,153.16
2023-04-10T08:23:53.142Z,153.87
2023-04-10T08:24:53.208Z,153.91
2023-04-10T08:25:53.307Z,154.45
2023-04-10T08:26:53.308Z,153.98
2023-04-10T08:27:53.361Z,154.20
2023-04-10T08:28:53.671Z,154.99
2023-04-10T08:29:53.475Z,154.54
2023-04-10T08:30:53.588Z,153.96
2023-04-10T08:31:53.595Z,153.91
2023-04-10T08:32:53.664Z,156.09
2023-04-10T08:33:53.957Z,154.72
2023-04-10T08:34:53.762Z,154.82
2023-04-10T08:35:53.824Z,154.86
2023-04-10T08:36:53.848Z,155.03
2023-04-10T08:38:11.589Z,156.63
2023-04-10T08:38:54.882Z,156.80
2023-04-10T08:39:53.867Z,156.96
2023-04-10T08:40:53.911Z,157.16
2023-04-10T08:41:53.864Z,157.09
2023-04-10T08:42:53.885Z,157.47
2023-04-10T08:43:54.193Z,159.00
2023-04-10T08:44:53.869Z,156.95
2023-04-10T08:45:53.876Z,159.41
2023-04-10T08:46:53.835Z,158.47
2023-04-10T08:47:53.907Z,159.23
2023-04-10T08:48:53.922Z,158.49
2023-04-10T08:49:53.940Z,160.05
2023-04-10T08:50:54.013Z,159.14
2023-04-10T08:51:54.053Z,159.13
2023-04-10T08:52:54.114Z,160.51
2023-04-10T08:53:54.221Z,159.10
2023-04-10T08:54:54.270Z,161.32
2023-04-10T08:55:54.219Z,159.87
2023-04-10T08:56:54.251Z,161.55
2023-04-10T08:58:01.086Z,161.89
2023-04-10T08:58:55.320Z,162.00
2023-04-10T08:59:54.294Z,162.13
2023-04-10T09:00:54.306Z,162.33
2023-04-10T09:01:54.313Z,163.19
2023-04-10T09:02:54.358Z,163.97
2023-04-10T09:03:54.578Z,163.24
2023-04-10T09:04:54.322Z,164.45
2023-04-10T09:05:54.274Z,164.24
2023-04-10T09:06:54.240Z,163.53
2023-04-10T09:07:54.262Z,164.35
2023-04-10T09:08:54.251Z,162.19
2023-04-10T09:09:54.265Z,164.39
2023-04-10T09:10:55.580Z,163.26
2023-04-10T09:11:54.378Z,163.86
2023-04-10T09:12:54.381Z,164.76
2023-04-10T09:13:54.547Z,165.19
2023-04-10T09:14:54.498Z,165.60
2023-04-10T09:15:54.557Z,164.55
2023-04-10T09:16:54.528Z,164.88
2023-04-10T09:17:54.626Z,165.73
2023-04-10T09:18:54.633Z,164.82
2023-04-10T09:19:54.641Z,165.74
2023-04-10T09:20:54.651Z,167.99
2023-04-10T09:21:54.651Z,164.56
2023-04-10T09:22:54.722Z,168.64
2023-04-10T09:23:55.098Z,168.39
2023-04-10T09:24:54.772Z,168.69
2023-04-10T09:25:54.809Z,166.15
2023-04-10T09:26:54.865Z,167.82
2023-04-10T09:27:54.846Z,168.29
2023-04-10T09:28:54.903Z,167.97
2023-04-10T09:29:54.936Z,167.94
2023-04-10T09:30:54.948Z,167.89
2023-04-10T09:31:54.971Z,169.17
2023-04-10T09:32:55.088Z,170.07
2023-04-10T09:33:55.167Z,168.34
2023-04-10T09:34:54.985Z,166.98
2023-04-10T09:35:55.053Z,169.63
2023-04-10T09:36:55.059Z,169.52
2023-04-10T09:37:55.053Z,167.97
2023-04-10T09:38:55.071Z,170.35
2023-04-10T09:39:55.087Z,168.81
2023-04-10T09:40:55.135Z,170.44
2023-04-10T09:41:55.158Z,170.29
2023-04-10T09:42:55.147Z,167.83
2023-04-10T09:43:55.255Z,169.06
2023-04-10T09:44:55.177Z,167.31
2023-04-10T09:45:55.224Z,166.51
2023-04-10T09:46:55.416Z,166.75
2023-04-10T09:47:55.321Z,171.21
2023-04-10T09:48:55.256Z,172.14
2023-04-10T09:49:55.251Z,167.21
2023-04-10T09:50:55.304Z,171.27
2023-04-10T09:51:55.334Z,167.18
2023-04-10T09:52:55.351Z,171.14
2023-04-10T09:53:55.557Z,167.38
2023-04-10T09:54:55.324Z,171.03
2023-04-10T09:55:55.336Z,168.47
2023-04-10T09:56:55.384Z,168.96
2023-04-10T09:57:55.357Z,168.71
2023-04-10T09:58:55.626Z,168.64
2023-04-10T09:59:55.362Z,166.89
2023-04-10T10:00:55.387Z,169.39
2023-04-10T10:01:55.460Z,168.27
2023-04-10T10:02:55.602Z,167.29
2023-04-10T10:03:55.447Z,170.27
2023-04-10T10:04:55.449Z,167.87
2023-04-10T10:05:55.371Z,170.59
2023-04-10T10:06:55.419Z,168.80
2023-04-10T10:07:55.373Z,167.27
2023-04-10T10:08:55.508Z,170.57
2023-04-10T10:09:55.385Z,165.45
2023-04-10T10:10:55.397Z,171.19
2023-04-10T10:11:55.395Z,164.01
2023-04-10T10:12:55.437Z,171.37
2023-04-10T10:13:55.453Z,170.13
2023-04-10T10:14:55.476Z,166.96
2023-04-10T10:15:55.531Z,167.71
2023-04-10T10:16:55.547Z,167.55
2023-04-10T10:17:55.666Z,166.14
2023-04-10T10:18:55.877Z,167.28
2023-04-10T10:19:55.720Z,170.62
2023-04-10T10:20:55.780Z,170.64
2023-04-10T10:21:55.832Z,168.67
2023-04-10T10:22:55.893Z,165.67
2023-04-10T10:23:55.947Z,168.63
2023-04-10T10:24:56.023Z,167.76
2023-04-10T10:25:56.078Z,172.64
2023-04-10T10:26:56.137Z,168.99
2023-04-10T10:27:56.178Z,169.46
2023-04-10T10:28:56.489Z,174.39
2023-04-10T10:29:56.298Z,169.17
2023-04-10T10:30:56.371Z,174.99
2023-04-10T10:31:56.540Z,172.19
2023-04-10T10:32:56.530Z,170.46
2023-04-10T10:33:56.515Z,174.87
2023-04-10T10:34:56.596Z,175.60
2023-04-10T10:35:56.638Z,170.23
2023-04-10T10:36:56.723Z,176.38
2023-04-10T10:37:56.764Z,177.24
2023-04-10T10:38:56.804Z,175.49
2023-04-10T10:39:56.872Z,174.16
2023-04-10T10:40:56.903Z,170.78
2023-04-10T10:41:56.999Z,177.20
2023-04-10T10:42:57.031Z,177.24
2023-04-10T10:43:57.077Z,175.06
2023-04-10T10:44:58.399Z,175.45
2023-04-10T10:45:57.203Z,176.35
2023-04-10T10:46:57.235Z,174.45
2023-04-10T10:47:57.346Z,175.21
2023-04-10T10:48:57.317Z,177.01
2023-04-10T10:49:57.342Z,175.84
2023-04-10T10:50:57.565Z,176.29
2023-04-10T10:51:57.429Z,175.02
2023-04-10T10:52:57.505Z,175.68
2023-04-10T10:53:57.542Z,172.85
2023-04-10T10:54:59.809Z,174.68
2023-04-10T10:55:57.555Z,175.96
2023-04-10T10:56:57.649Z,172.91
2023-04-10T10:57:57.690Z,174.18
2023-04-10T10:58:57.712Z,175.24
2023-04-10T10:59:57.728Z,171.98
2023-04-10T11:00:57.717Z,174.47
2023-04-10T11:01:57.873Z,173.26
2023-04-10T11:02:58.110Z,178.28
2023-04-10T11:03:57.968Z,174.63
2023-04-10T11:04:57.870Z,175.35
2023-04-10T11:05:57.873Z,175.94
2023-04-10T11:06:57.885Z,175.08
2023-04-10T11:07:57.951Z,173.05
2023-04-10T11:08:57.960Z,175.33
2023-04-10T11:09:58.001Z,175.17
2023-04-10T11:10:58.008Z,177.37
2023-04-10T11:11:58.016Z,173.56
2023-04-10T11:12:58.015Z,175.80
2023-04-10T11:13:58.091Z,177.53
2023-04-10T11:14:58.083Z,172.26
2023-04-10T11:15:58.104Z,177.55
2023-04-10T11:16:58.249Z,172.07
2023-04-10T11:17:58.184Z,175.58
2023-04-10T11:19:10.494Z,175.19
2023-04-10T11:19:59.086Z,175.37
2023-04-10T11:20:58.070Z,175.50
2023-04-10T11:21:58.150Z,175.90
2023-04-10T11:22:58.097Z,174.93
2023-04-10T11:23:58.202Z,175.84
2023-04-10T11:24:58.092Z,176.67
2023-04-10T11:25:58.078Z,174.18
2023-04-10T11:26:58.080Z,173.56
2023-04-10T11:27:58.077Z,172.41
2023-04-10T11:28:58.076Z,174.49
2023-04-10T11:29:58.024Z,175.66
2023-04-10T11:30:58.085Z,175.07
2023-04-10T11:31:58.042Z,175.36
2023-04-10T11:32:58.111Z,175.33
2023-04-10T11:33:58.026Z,177.36
2023-04-10T11:34:58.018Z,175.10
2023-04-10T11:35:58.067Z,174.92
2023-04-10T11:36:57.978Z,175.08
2023-04-10T11:37:58.011Z,176.29
2023-04-10T11:38:58.002Z,175.05
2023-04-10T11:39:57.992Z,172.62
2023-04-10T11:40:57.977Z,178.09
2023-04-10T11:41:57.971Z,175.11
2023-04-10T11:42:57.970Z,173.27
2023-04-10T11:43:57.944Z,170.53
2023-04-10T11:44:57.974Z,172.51
2023-04-10T11:45:58.004Z,175.49
2023-04-10T11:46:57.954Z,171.12
2023-04-10T11:47:57.993Z,170.13
2023-04-10T11:48:58.028Z,170.13
2023-04-10T11:49:58.069Z,171.26
2023-04-10T11:50:58.090Z,169.78
2023-04-10T11:51:58.194Z,168.67
2023-04-10T11:52:58.267Z,168.33
2023-04-10T11:53:58.297Z,167.74
2023-04-10T11:54:58.369Z,163.26
2023-04-10T11:55:58.476Z,166.34
2023-04-10T11:56:58.514Z,166.44
2023-04-10T11:57:58.515Z,162.79
2023-04-10T11:58:58.610Z,162.26
2023-04-10T11:59:58.668Z,161.59
2023-04-10T12:00:58.762Z,162.84
2023-04-10T12:01:58.816Z,160.84
2023-04-10T12:02:58.941Z,159.00
2023-04-10T12:03:59.002Z,158.38
2023-04-10T12:04:58.959Z,160.86
2023-04-10T12:05:58.955Z,158.41
2023-04-10T12:06:58.995Z,159.04
2023-04-10T12:07:59.071Z,158.63
2023-04-10T12:08:59.098Z,158.90
2023-04-10T12:11:17.792Z,25.00
2023-04-10T12:12:17.765Z,25.00
2023-04-10T12:13:17.782Z,25.00
2023-04-10T12:14:17.797Z,25.00
2023-04-10T12:15:17.870Z,25.00
2023-04-10T12:16:17.942Z,26.93
2023-04-10T12:17:17.936Z,25.00
2023-04-10T12:18:17.946Z,25.00
2023-04-10T12:19:18.104Z,28.81
2023-04-10T12:20:18.144Z,27.45
2023-04-10T12:21:18.119Z,25.80
2023-04-10T12:22:18.096Z,26.92
2023-04-10T12:23:18.184Z,25.86
2023-04-10T12:24:18.202Z,26.12
2023-04-10T12:25:18.242Z,27.24
2023-04-10T12:26:18.349Z,25.85
2023-04-10T12:27:18.291Z,27.33
2023-04-10T12:28:18.353Z,27.19
2023-04-10T12:29:18.338Z,29.99
2023-04-10T12:30:18.444Z,30.11
2023-04-10T12:31:18.521Z,26.67
2023-04-10T12:32:18.540Z,27.11
2023-04-10T12:33:18.511Z,27.73